Terminal Aerodrome Forecast
Issued by NWS Upton, NY

Current Version | Previous Version | Text Only | Print | Product List | Glossary On
Versions: 1 2 3 4 5 6 7 8 9 10 11 12 13 14 15 16 17 18 19 20 21 22 23 24 25 26 27 28 29 30 31 32 33 34 35 36 37 38 39 40
593
FTUS41 KOKX 281344 AAA
TAFJFK
TAF AMD
KJFK 281344Z 2814/2918 19005KT 6SM HZ SCT250
     FM281500 18007KT P6SM BKN200
     FM281800 17011KT P6SM BKN200
     FM282000 17014KT P6SM BKN200
     FM282300 18010KT P6SM BKN150
     FM290100 18005KT P6SM VCSH FEW080 BKN150
     FM290700 18005KT 6SM -SHRA SCT060 BKN120
     FM291000 12007KT 5SM -SHRA BKN050 PROB30 2910/2914 2SM TSRA
      BKN040CB
     FM291400 14010G18KT 2SM SHRA BR OVC025 PROB30 2914/2918 1SM
      +TSRA OVC015CB=

USA.gov is the U.S. government's official web portal to all federal, state and local government web resources and services.